createdAt,value
2022-07-31T00:00:23.244Z,16.49
2022-07-31T00:02:49.850Z,16.46
2022-07-31T00:05:16.542Z,16.46
2022-07-31T00:07:43.420Z,16.46
2022-07-31T00:10:10.220Z,16.48
2022-07-31T00:12:36.758Z,16.41
2022-07-31T00:15:06.161Z,16.38
2022-07-31T00:17:33.358Z,16.38
2022-07-31T00:20:00.012Z,16.31
2022-07-31T00:22:26.641Z,16.29
2022-07-31T00:24:53.266Z,16.27
2022-07-31T00:27:19.765Z,16.25
2022-07-31T00:29:46.479Z,16.20
2022-07-31T00:32:13.154Z,16.17
2022-07-31T00:34:39.708Z,16.18
2022-07-31T00:37:06.588Z,16.17
2022-07-31T00:39:33.535Z,16.18
2022-07-31T00:42:00.150Z,16.20
2022-07-31T00:44:26.765Z,16.21
2022-07-31T00:46:53.420Z,16.20
2022-07-31T00:49:20.320Z,16.23
2022-07-31T00:51:48.220Z,16.21
2022-07-31T00:54:22.438Z,16.19
2022-07-31T00:56:50.463Z,16.19
2022-07-31T00:59:24.398Z,16.18
2022-07-31T01:01:51.860Z,16.19
2022-07-31T01:04:19.818Z,16.17
2022-07-31T01:06:47.642Z,16.23
2022-07-31T01:09:14.888Z,16.22
2022-07-31T01:12:08.969Z,16.22
2022-07-31T01:14:40.860Z,16.28
2022-07-31T01:17:10.548Z,16.28
2022-07-31T01:19:43.525Z,16.25
2022-07-31T01:22:35.139Z,16.22
2022-07-31T01:25:26.574Z,16.22
2022-07-31T01:28:07.060Z,16.33
2022-07-31T01:31:00.420Z,16.36
2022-07-31T01:33:48.673Z,16.33
2022-07-31T01:36:22.816Z,16.33
2022-07-31T01:38:52.209Z,16.36
2022-07-31T01:41:24.442Z,16.37
2022-07-31T01:43:54.512Z,16.38
2022-07-31T01:46:22.333Z,16.37
2022-07-31T01:48:50.179Z,16.34
2022-07-31T01:51:18.836Z,16.34
2022-07-31T01:53:47.449Z,16.31
2022-07-31T01:56:17.682Z,16.31
2022-07-31T01:58:46.929Z,16.28
2022-07-31T02:01:14.749Z,16.25
2022-07-31T02:03:45.283Z,16.21
2022-07-31T02:06:15.003Z,16.17
2022-07-31T02:08:45.024Z,16.16
2022-07-31T02:11:12.085Z,16.14
2022-07-31T02:13:38.895Z,16.18
2022-07-31T02:16:06.627Z,16.17
2022-07-31T02:18:34.355Z,16.14
2022-07-31T02:21:01.041Z,16.14
2022-07-31T02:23:27.711Z,16.12
2022-07-31T02:25:54.863Z,16.09
2022-07-31T02:28:22.951Z,16.08
2022-07-31T02:30:50.892Z,16.06
2022-07-31T02:33:21.447Z,16.00
2022-07-31T02:35:54.137Z,16.02
2022-07-31T02:38:23.947Z,15.98
2022-07-31T02:40:53.809Z,15.98
2022-07-31T02:43:21.277Z,15.95
2022-07-31T02:45:48.349Z,16.00
2022-07-31T02:48:15.577Z,15.98
2022-07-31T02:50:43.031Z,15.93
2022-07-31T02:53:09.843Z,15.91
2022-07-31T02:55:37.158Z,15.93
2022-07-31T02:58:03.871Z,15.94
2022-07-31T03:00:31.029Z,15.92
2022-07-31T03:02:58.433Z,15.93
2022-07-31T03:05:25.199Z,16.02
2022-07-31T03:07:51.945Z,16.08
2022-07-31T03:10:19.051Z,16.21
2022-07-31T03:12:51.940Z,16.22
2022-07-31T03:15:21.168Z,16.26
2022-07-31T03:17:49.180Z,16.23
2022-07-31T03:20:16.827Z,16.16
2022-07-31T03:22:44.536Z,16.16
2022-07-31T03:25:11.594Z,16.18
2022-07-31T03:27:56.433Z,16.18
2022-07-31T03:30:25.339Z,16.19
2022-07-31T03:32:53.140Z,16.21
2022-07-31T03:35:19.745Z,16.24
2022-07-31T03:37:46.393Z,16.27
2022-07-31T03:40:13.292Z,16.30
2022-07-31T03:42:40.101Z,16.32
2022-07-31T03:45:07.681Z,16.32
2022-07-31T03:47:34.351Z,16.37
2022-07-31T03:50:02.289Z,16.41
2022-07-31T03:52:31.294Z,16.42
2022-07-31T03:54:58.138Z,16.42
2022-07-31T03:57:29.132Z,16.40
2022-07-31T04:00:01.823Z,16.45
2022-07-31T04:02:29.361Z,16.50
2022-07-31T04:04:57.344Z,16.49
2022-07-31T04:07:24.612Z,16.48
2022-07-31T04:09:51.692Z,16.52
2022-07-31T04:12:18.526Z,16.60
2022-07-31T04:14:45.815Z,16.62
2022-07-31T04:17:12.617Z,16.62
2022-07-31T04:19:39.474Z,16.65
2022-07-31T04:22:07.026Z,16.68
2022-07-31T04:24:34.021Z,16.66
2022-07-31T04:27:00.931Z,16.68
2022-07-31T04:29:28.926Z,16.73
2022-07-31T04:31:56.326Z,16.75
2022-07-31T04:34:23.095Z,16.78
2022-07-31T04:36:49.924Z,16.83
2022-07-31T04:39:16.734Z,16.84
2022-07-31T04:41:43.407Z,16.87
2022-07-31T04:44:10.611Z,16.96
2022-07-31T04:46:37.382Z,17.02
2022-07-31T04:49:04.241Z,17.15
2022-07-31T04:51:30.892Z,17.23
2022-07-31T04:53:57.452Z,17.23
2022-07-31T04:56:42.412Z,17.36
2022-07-31T04:59:14.904Z,17.44
2022-07-31T05:01:43.222Z,17.55
2022-07-31T05:04:10.481Z,17.68
2022-07-31T05:06:41.980Z,17.87
2022-07-31T05:09:18.412Z,18.35
2022-07-31T05:11:46.517Z,18.92
2022-07-31T05:14:14.602Z,19.38
2022-07-31T05:16:41.155Z,19.82
2022-07-31T05:19:13.842Z,20.02
2022-07-31T05:21:53.027Z,19.97
2022-07-31T05:24:32.818Z,19.92
2022-07-31T05:27:02.779Z,19.91
2022-07-31T05:29:30.374Z,19.80
2022-07-31T05:31:59.782Z,19.66
2022-07-31T05:34:30.805Z,19.63
2022-07-31T05:37:01.257Z,19.71
2022-07-31T05:39:28.708Z,19.74
2022-07-31T05:41:55.301Z,19.78
2022-07-31T05:44:21.981Z,19.79
2022-07-31T05:46:48.611Z,19.87
2022-07-31T05:49:15.334Z,19.81
2022-07-31T05:51:46.788Z,19.86
2022-07-31T05:54:13.676Z,19.99
2022-07-31T05:56:40.429Z,20.11
2022-07-31T05:59:07.136Z,20.25
2022-07-31T06:01:33.835Z,20.23
2022-07-31T06:04:00.409Z,20.38
2022-07-31T06:06:27.031Z,20.54
2022-07-31T06:08:53.683Z,20.53
2022-07-31T06:11:20.783Z,20.68
2022-07-31T06:13:47.469Z,20.76
2022-07-31T06:16:15.394Z,20.81
2022-07-31T06:18:42.650Z,20.92
2022-07-31T06:21:09.887Z,21.11
2022-07-31T06:23:36.766Z,21.09
2022-07-31T06:26:04.020Z,21.18
2022-07-31T06:28:47.662Z,21.15
2022-07-31T06:31:20.503Z,21.30
2022-07-31T06:33:48.494Z,21.34
2022-07-31T06:36:16.260Z,21.50
2022-07-31T06:38:42.980Z,21.65
2022-07-31T06:41:09.963Z,21.68
2022-07-31T06:43:36.909Z,21.62
2022-07-31T06:46:03.556Z,21.59
2022-07-31T06:48:30.135Z,21.70
2022-07-31T06:51:21.060Z,21.81
2022-07-31T06:53:43.504Z,21.84
2022-07-31T06:56:10.375Z,21.90
2022-07-31T06:58:37.007Z,22.43
2022-07-31T07:01:03.785Z,23.02
2022-07-31T07:03:30.475Z,23.51
2022-07-31T07:05:57.243Z,24.11
2022-07-31T07:08:23.820Z,24.18
2022-07-31T07:10:50.376Z,24.36
2022-07-31T07:13:17.102Z,24.69
2022-07-31T07:15:43.723Z,25.24
2022-07-31T07:18:10.414Z,25.67
2022-07-31T07:20:37.266Z,26.06
2022-07-31T07:23:03.967Z,26.37
2022-07-31T07:25:30.766Z,26.47
2022-07-31T07:27:57.542Z,26.90
2022-07-31T07:30:25.307Z,26.64
2022-07-31T07:32:52.010Z,26.18
2022-07-31T07:35:18.718Z,26.25
2022-07-31T07:37:45.322Z,26.37
2022-07-31T07:40:12.232Z,26.12
2022-07-31T07:42:38.789Z,25.66
2022-07-31T07:45:07.868Z,25.61
2022-07-31T07:47:53.739Z,25.88
2022-07-31T07:50:29.094Z,25.73
2022-07-31T07:52:56.506Z,25.38
2022-07-31T07:55:23.580Z,25.31
2022-07-31T07:57:50.372Z,24.95
2022-07-31T08:00:17.007Z,25.05
2022-07-31T08:03:46.390Z,24.87
2022-07-31T08:05:35.411Z,25.10
2022-07-31T08:08:03.139Z,25.30
2022-07-31T08:10:29.992Z,25.27
2022-07-31T08:12:57.764Z,25.08
2022-07-31T08:15:24.818Z,25.11
2022-07-31T08:17:52.024Z,25.29
2022-07-31T08:20:18.674Z,25.14
2022-07-31T08:22:45.318Z,25.40
2022-07-31T08:25:14.318Z,26.11
2022-07-31T08:27:41.908Z,26.98
2022-07-31T08:30:09.009Z,27.56
2022-07-31T08:32:36.365Z,28.15
2022-07-31T08:35:03.114Z,28.42
2022-07-31T08:38:01.210Z,28.55
2022-07-31T08:40:18.761Z,28.35
2022-07-31T08:42:46.499Z,28.61
2022-07-31T08:45:13.936Z,29.08
2022-07-31T08:47:42.330Z,29.01
2022-07-31T08:50:10.353Z,28.30
2022-07-31T08:52:37.621Z,29.00
2022-07-31T08:55:08.428Z,29.13
2022-07-31T08:57:36.762Z,28.92
2022-07-31T09:00:09.920Z,28.71
2022-07-31T09:02:39.522Z,29.30
2022-07-31T09:05:06.478Z,28.95
2022-07-31T09:07:33.061Z,29.39
2022-07-31T09:09:59.594Z,28.23
2022-07-31T09:12:33.890Z,28.02
2022-07-31T09:15:00.941Z,28.34
2022-07-31T09:17:35.649Z,28.81
2022-07-31T09:20:03.824Z,27.78
2022-07-31T09:22:31.391Z,27.76
2022-07-31T09:25:12.345Z,28.53
2022-07-31T09:27:39.418Z,27.80
2022-07-31T09:30:07.615Z,28.10
2022-07-31T09:32:34.316Z,27.78
2022-07-31T09:35:11.994Z,27.74
2022-07-31T09:37:39.411Z,27.63
2022-07-31T09:40:08.025Z,28.01
2022-07-31T09:42:46.083Z,28.49
2022-07-31T09:45:24.408Z,28.56
2022-07-31T09:48:12.394Z,27.91
2022-07-31T09:50:54.003Z,27.42
2022-07-31T09:53:21.210Z,28.09
2022-07-31T09:55:52.106Z,28.66
2022-07-31T09:58:18.846Z,28.85
2022-07-31T10:00:52.623Z,29.18
2022-07-31T10:03:20.299Z,29.21
2022-07-31T10:05:47.990Z,29.37
2022-07-31T10:08:15.247Z,28.66
2022-07-31T10:10:46.032Z,29.16
2022-07-31T10:13:15.554Z,29.45
2022-07-31T10:15:45.760Z,28.67
2022-07-31T10:18:13.248Z,29.01
2022-07-31T10:20:44.049Z,29.10
2022-07-31T10:23:19.849Z,29.50
2022-07-31T10:25:53.322Z,29.71
2022-07-31T10:28:21.608Z,29.62
2022-07-31T10:30:49.349Z,29.82
2022-07-31T10:33:41.938Z,29.93
2022-07-31T10:36:12.353Z,29.60
2022-07-31T10:38:47.719Z,29.77
2022-07-31T10:41:31.905Z,30.13
2022-07-31T10:44:08.287Z,30.26
2022-07-31T10:46:34.921Z,30.14
2022-07-31T10:49:01.736Z,29.64
2022-07-31T10:51:46.612Z,29.26
2022-07-31T10:54:14.500Z,29.34
2022-07-31T10:56:46.388Z,29.94
2022-07-31T10:59:13.644Z,30.35
2022-07-31T11:01:52.890Z,30.86
2022-07-31T11:04:34.877Z,30.78
2022-07-31T11:07:01.524Z,30.89
2022-07-31T11:09:29.349Z,31.44
2022-07-31T11:11:56.620Z,32.08
2022-07-31T11:14:34.631Z,31.72
2022-07-31T11:17:01.536Z,32.31
2022-07-31T11:19:41.106Z,31.66
2022-07-31T11:22:32.053Z,30.72
2022-07-31T11:25:00.811Z,30.84
2022-07-31T11:27:32.340Z,30.08
2022-07-31T11:30:13.055Z,29.70
2022-07-31T11:32:41.169Z,29.42
2022-07-31T11:35:08.463Z,29.35
2022-07-31T11:37:45.328Z,29.20
2022-07-31T11:40:27.384Z,29.97
2022-07-31T11:43:24.277Z,30.29
2022-07-31T11:45:50.214Z,29.61
2022-07-31T11:48:19.316Z,29.14
2022-07-31T11:50:47.542Z,28.99
2022-07-31T11:53:14.237Z,29.30
2022-07-31T11:55:49.378Z,29.49
2022-07-31T11:58:17.636Z,29.91
2022-07-31T12:01:01.831Z,29.97
2022-07-31T12:03:34.853Z,29.59
2022-07-31T12:06:01.680Z,29.57
2022-07-31T12:08:29.531Z,29.66
2022-07-31T12:10:58.121Z,29.33
2022-07-31T12:13:25.542Z,29.27
2022-07-31T12:16:09.785Z,29.15
2022-07-31T12:18:48.985Z,29.77
2022-07-31T12:21:16.932Z,29.65
2022-07-31T12:23:48.086Z,29.75
2022-07-31T12:26:25.208Z,29.86
2022-07-31T12:29:02.175Z,29.17
2022-07-31T12:31:30.367Z,29.10
2022-07-31T12:33:57.012Z,29.61
2022-07-31T12:36:23.676Z,29.40
2022-07-31T12:39:05.089Z,29.01
2022-07-31T12:41:42.140Z,28.96
2022-07-31T12:44:14.376Z,29.41
2022-07-31T12:46:41.759Z,29.49
2022-07-31T12:49:08.829Z,29.67
2022-07-31T12:51:44.666Z,29.88
2022-07-31T12:54:15.112Z,30.03
2022-07-31T12:56:42.198Z,30.00
2022-07-31T12:59:09.854Z,30.00
2022-07-31T13:01:37.274Z,29.25
2022-07-31T13:04:08.102Z,29.29
2022-07-31T13:06:48.493Z,29.64
2022-07-31T13:09:15.296Z,29.34
2022-07-31T13:11:46.010Z,29.88
2022-07-31T13:14:18.921Z,29.85
2022-07-31T13:16:46.699Z,29.83
2022-07-31T13:19:14.243Z,29.84
2022-07-31T13:21:49.261Z,29.81
2022-07-31T13:24:18.149Z,30.34
2022-07-31T13:26:45.589Z,29.68
2022-07-31T13:29:12.586Z,29.47
2022-07-31T13:31:39.443Z,29.56
2022-07-31T13:34:06.343Z,29.04
2022-07-31T13:36:38.767Z,29.70
2022-07-31T13:39:09.457Z,29.93
2022-07-31T13:41:36.640Z,30.16
2022-07-31T13:44:06.540Z,29.62
2022-07-31T13:46:33.129Z,29.75
2022-07-31T13:49:01.940Z,30.13
2022-07-31T13:51:29.482Z,30.11
2022-07-31T13:53:56.258Z,30.05
2022-07-31T13:56:38.968Z,30.31
2022-07-31T13:59:11.326Z,30.88
2022-07-31T14:02:03.063Z,31.13
2022-07-31T14:04:25.279Z,30.92
2022-07-31T14:06:51.856Z,31.03
2022-07-31T14:09:19.431Z,31.13
2022-07-31T14:11:46.080Z,30.53
2022-07-31T14:14:16.072Z,30.87
2022-07-31T14:16:49.568Z,30.90
2022-07-31T14:19:16.050Z,30.71
2022-07-31T14:21:56.402Z,30.56
2022-07-31T14:24:26.138Z,30.25
2022-07-31T14:26:52.825Z,30.12
2022-07-31T14:29:19.665Z,30.47
2022-07-31T14:31:46.177Z,30.58
2022-07-31T14:34:12.731Z,30.61
2022-07-31T14:36:39.250Z,30.62
2022-07-31T14:39:05.777Z,30.30
2022-07-31T14:41:32.244Z,30.10
2022-07-31T14:43:58.734Z,29.91
2022-07-31T14:46:25.242Z,29.72
2022-07-31T14:48:51.913Z,29.33
2022-07-31T14:51:19.049Z,28.69
2022-07-31T14:53:48.606Z,28.61
2022-07-31T14:56:27.344Z,28.76
2022-07-31T14:59:01.110Z,28.87
2022-07-31T15:01:30.905Z,28.91
2022-07-31T15:03:57.945Z,28.55
2022-07-31T15:06:39.734Z,28.40
2022-07-31T15:09:11.984Z,28.17
2022-07-31T15:11:58.423Z,27.59
2022-07-31T15:14:28.623Z,27.26
2022-07-31T15:16:55.138Z,27.30
2022-07-31T15:19:21.612Z,27.27
2022-07-31T15:22:09.985Z,26.94
2022-07-31T15:24:34.724Z,26.85
2022-07-31T15:27:01.217Z,26.77
2022-07-31T15:30:04.798Z,26.73
2022-07-31T15:32:14.375Z,26.77
2022-07-31T15:34:40.992Z,26.60
2022-07-31T15:37:07.954Z,26.62
2022-07-31T15:39:34.660Z,26.68
2022-07-31T15:42:02.141Z,26.80
2022-07-31T15:44:29.130Z,26.86
2022-07-31T15:46:56.111Z,26.82
2022-07-31T15:49:22.811Z,26.92
2022-07-31T15:51:49.536Z,26.95
2022-07-31T15:54:16.355Z,26.90
2022-07-31T15:56:43.086Z,26.83
2022-07-31T15:59:09.697Z,26.78
2022-07-31T16:01:37.736Z,26.79
2022-07-31T16:04:16.343Z,26.93
2022-07-31T16:06:49.024Z,26.88
2022-07-31T16:09:17.127Z,26.94
2022-07-31T16:12:03.810Z,26.95
2022-07-31T16:14:30.282Z,26.77
2022-07-31T16:16:57.525Z,26.71
2022-07-31T16:19:25.184Z,26.74
2022-07-31T16:21:55.311Z,26.68
2022-07-31T16:24:22.769Z,26.73
2022-07-31T16:26:49.736Z,26.74
2022-07-31T16:29:17.789Z,26.81
2022-07-31T16:32:04.036Z,26.84
2022-07-31T16:34:30.657Z,26.90
2022-07-31T16:36:57.252Z,26.92
2022-07-31T16:39:24.053Z,26.89
2022-07-31T16:41:54.331Z,26.78
2022-07-31T16:44:21.415Z,26.66
2022-07-31T16:46:52.783Z,26.62
2022-07-31T16:49:35.249Z,26.52
2022-07-31T16:52:05.080Z,26.38
2022-07-31T16:54:31.591Z,26.36
2022-07-31T16:56:58.071Z,26.32
2022-07-31T16:59:24.604Z,26.32
2022-07-31T17:01:59.657Z,26.21
2022-07-31T17:04:27.911Z,26.05
2022-07-31T17:06:55.508Z,25.99
2022-07-31T17:09:22.266Z,25.90
2022-07-31T17:11:55.244Z,25.90
2022-07-31T17:14:25.668Z,25.78
2022-07-31T17:16:54.266Z,25.85
2022-07-31T17:19:42.332Z,25.86
2022-07-31T17:22:11.232Z,25.84
2022-07-31T17:24:39.023Z,25.85
2022-07-31T17:27:07.469Z,25.78
2022-07-31T17:29:34.971Z,25.73
2022-07-31T17:32:01.600Z,25.67
2022-07-31T17:34:28.185Z,25.67
2022-07-31T17:36:54.895Z,25.62
2022-07-31T17:39:21.407Z,25.59
2022-07-31T17:41:47.946Z,25.51
2022-07-31T17:44:14.874Z,25.42
2022-07-31T17:46:43.855Z,25.35
2022-07-31T17:49:20.158Z,25.27
2022-07-31T17:51:59.196Z,25.25
2022-07-31T17:54:31.596Z,25.33
2022-07-31T17:57:01.091Z,25.33
2022-07-31T17:59:28.572Z,25.25
2022-07-31T18:02:04.796Z,25.13
2022-07-31T18:04:33.951Z,25.09
2022-07-31T18:07:02.051Z,24.97
2022-07-31T18:09:28.786Z,24.71
2022-07-31T18:11:56.429Z,24.62
2022-07-31T18:14:24.526Z,24.50
2022-07-31T18:16:51.274Z,24.43
2022-07-31T18:19:18.352Z,24.37
2022-07-31T18:21:44.881Z,24.41
2022-07-31T18:24:11.358Z,24.46
2022-07-31T18:26:39.168Z,24.51
2022-07-31T18:29:05.672Z,24.56
2022-07-31T18:31:35.496Z,24.56
2022-07-31T18:34:04.410Z,24.60
2022-07-31T18:36:34.742Z,24.61
2022-07-31T18:39:01.811Z,24.59
2022-07-31T18:41:28.433Z,24.58
2022-07-31T18:43:55.408Z,24.42
2022-07-31T18:46:23.825Z,24.33
2022-07-31T18:48:55.433Z,24.19
2022-07-31T18:51:23.280Z,24.15
2022-07-31T18:53:50.193Z,24.01
2022-07-31T18:56:17.653Z,23.98
2022-07-31T18:58:45.085Z,23.73
2022-07-31T19:01:11.779Z,23.62
2022-07-31T19:03:38.447Z,23.47
2022-07-31T19:06:05.091Z,23.47
2022-07-31T19:08:31.924Z,23.45
2022-07-31T19:10:58.580Z,23.51
2022-07-31T19:13:25.482Z,23.41
2022-07-31T19:15:53.265Z,23.39
2022-07-31T19:18:28.120Z,23.21
2022-07-31T19:21:17.969Z,23.07
2022-07-31T19:23:45.503Z,22.99
2022-07-31T19:26:12.132Z,22.94
2022-07-31T19:28:39.838Z,22.84
2022-07-31T19:31:07.107Z,22.77
2022-07-31T19:33:33.843Z,22.59
2022-07-31T19:36:02.663Z,22.63
2022-07-31T19:38:31.742Z,22.56
2022-07-31T19:40:58.600Z,22.71
2022-07-31T19:43:25.531Z,22.72
2022-07-31T19:46:09.645Z,22.73
2022-07-31T19:48:40.864Z,22.76
2022-07-31T19:51:08.134Z,22.84
2022-07-31T19:53:34.905Z,22.87
2022-07-31T19:56:05.380Z,22.83
2022-07-31T19:58:34.407Z,22.88
2022-07-31T20:01:01.026Z,22.90
2022-07-31T20:03:27.556Z,22.90
2022-07-31T20:05:54.144Z,22.97
2022-07-31T20:08:20.637Z,22.94
2022-07-31T20:10:47.112Z,22.97
2022-07-31T20:13:13.613Z,23.04
2022-07-31T20:15:49.646Z,22.99
2022-07-31T20:18:28.519Z,22.95
2022-07-31T20:20:58.131Z,22.95
2022-07-31T20:23:25.815Z,22.88
2022-07-31T20:25:52.690Z,22.85
2022-07-31T20:28:19.367Z,22.84
2022-07-31T20:30:45.999Z,22.79
2022-07-31T20:33:13.284Z,22.78
2022-07-31T20:35:48.718Z,22.76
2022-07-31T20:38:20.994Z,22.71
2022-07-31T20:40:53.726Z,22.63
2022-07-31T20:43:21.618Z,22.53
2022-07-31T20:45:48.335Z,22.56
2022-07-31T20:48:17.792Z,22.50
2022-07-31T20:50:48.044Z,22.51
2022-07-31T20:53:15.792Z,22.48
2022-07-31T20:55:47.231Z,22.45
2022-07-31T20:58:14.176Z,22.46
2022-07-31T21:00:41.543Z,22.38
2022-07-31T21:03:08.146Z,22.32
2022-07-31T21:05:34.782Z,22.25
2022-07-31T21:08:01.474Z,22.14
2022-07-31T21:10:29.647Z,22.02
2022-07-31T21:12:56.579Z,21.86
2022-07-31T21:15:42.867Z,21.68
2022-07-31T21:18:16.683Z,21.62
2022-07-31T21:20:51.709Z,21.43
2022-07-31T21:23:24.016Z,21.25
2022-07-31T21:25:56.146Z,21.11
2022-07-31T21:28:24.517Z,21.00
2022-07-31T21:30:53.829Z,20.98
2022-07-31T21:33:20.694Z,20.88
2022-07-31T21:35:47.650Z,20.83
2022-07-31T21:38:15.929Z,20.77
2022-07-31T21:40:43.287Z,20.70
2022-07-31T21:43:10.910Z,20.61
2022-07-31T21:45:50.286Z,20.57
2022-07-31T21:48:23.637Z,20.52
2022-07-31T21:50:50.862Z,20.47
2022-07-31T21:53:17.496Z,20.38
2022-07-31T21:55:44.252Z,20.32
2022-07-31T21:58:11.182Z,20.16
2022-07-31T22:00:38.264Z,20.18
2022-07-31T22:03:05.692Z,20.09
2022-07-31T22:05:51.657Z,19.97
2022-07-31T22:08:18.738Z,19.91
2022-07-31T22:10:45.601Z,19.90
2022-07-31T22:13:12.624Z,19.90
2022-07-31T22:15:52.761Z,19.96
2022-07-31T22:18:30.591Z,19.94
2022-07-31T22:20:58.570Z,19.94
2022-07-31T22:23:26.396Z,19.94
2022-07-31T22:25:53.548Z,19.96
2022-07-31T22:28:22.458Z,19.94
2022-07-31T22:30:49.738Z,19.88
2022-07-31T22:33:16.555Z,19.94
2022-07-31T22:35:43.584Z,19.87
2022-07-31T22:38:11.813Z,19.87
2022-07-31T22:40:38.818Z,19.92
2022-07-31T22:43:47.287Z,19.95
2022-07-31T22:45:53.938Z,19.93
2022-07-31T22:48:24.338Z,19.96
2022-07-31T22:50:51.055Z,20.03
2022-07-31T22:53:17.827Z,20.09
2022-07-31T22:55:44.511Z,20.06
2022-07-31T22:58:11.505Z,20.16
2022-07-31T23:00:38.495Z,20.12
2022-07-31T23:03:05.113Z,20.16
2022-07-31T23:06:12.239Z,20.28
2022-07-31T23:08:18.544Z,20.45
2022-07-31T23:10:45.211Z,20.51
2022-07-31T23:13:11.830Z,20.48
2022-07-31T23:15:38.318Z,20.50
2022-07-31T23:18:04.942Z,20.53
2022-07-31T23:20:31.575Z,20.36
2022-07-31T23:22:58.171Z,20.39
2022-07-31T23:25:24.796Z,20.46
2022-07-31T23:27:51.381Z,20.51
2022-07-31T23:30:17.958Z,20.44
2022-07-31T23:32:44.649Z,20.31
2022-07-31T23:35:11.357Z,20.27
2022-07-31T23:37:38.118Z,20.27
2022-07-31T23:40:05.415Z,20.31
2022-07-31T23:42:38.003Z,20.37
2022-07-31T23:45:11.391Z,20.37
2022-07-31T23:47:46.073Z,20.37
2022-07-31T23:50:14.575Z,20.41
2022-07-31T23:52:42.212Z,20.43
2022-07-31T23:55:09.564Z,20.40
2022-07-31T23:57:36.575Z,20.44
